| time (UTC) | temp C | wind direction | speed KPH | gust KPH | rain 1hr cm | rain 24hr cm | rain mn cm | humidity % | barometer mb |
| 20260508065555 | 7 | 227 | 0.0 | 1.6 | 0.00 | 0.00 | 0.00 | 72 | 1020.4 |
| 20260508065053 | 8 | 192 | 1.6 | 1.6 | 0.00 | 0.00 | 0.00 | 71 | 1020.7 |
| 20260508064550 | 8 | 204 | 0.0 | 0.0 | 0.00 | 0.00 | 0.00 | 69 | 1020.7 |
| 20260508064048 | 8 | 127 | 4.8 | 4.8 | 0.00 | 0.00 | 0.00 | 70 | 1020.7 |
| 20260508063545 | 8 | 189 | 1.6 | 1.6 | 0.00 | 0.00 | 0.00 | 72 | 1020.8 |
| 20260508063043 | 8 | 148 | 8.0 | 8.0 | 0.00 | 0.00 | 0.00 | 71 | 1020.4 |
| 20260508062540 | 8 | 235 | 3.2 | 3.2 | 0.00 | 0.00 | 0.00 | 70 | 1020.8 |
| 20260508062036 | 7 | 228 | 3.2 | 3.2 | 0.00 | 0.00 | 0.00 | 78 | 1020.8 |
| 20260508061534 | 7 | 203 | 1.6 | 1.6 | 0.00 | 0.00 | 0.00 | 79 | 1020.6 |
| 20260508061031 | 7 | 196 | 1.6 | 1.6 | 0.00 | 0.00 | 0.00 | 79 | 1020.8 |
| 20260508060528 | 7 | 201 | 0.0 | 0.0 | 0.00 | 0.00 | 0.00 | 79 | 1020.7 |
| 20260508060026 | 7 | 184 | 1.6 | 1.6 | 0.00 | 0.00 | 0.00 | 78 | 1020.7 |
| 20260508055521 | 7 | 209 | 0.0 | 0.0 | 0.00 | 0.00 | 0.00 | 77 | 1020.8 |
| 20260508055018 | 7 | 220 | 1.6 | 3.2 | 0.00 | 0.00 | 0.00 | 76 | 1020.8 |
| 20260508054514 | 7 | 245 | 1.6 | 1.6 | 0.00 | 0.00 | 0.00 | 79 | 1020.6 |
| 20260508054012 | 7 | 235 | 1.6 | 1.6 | 0.00 | 0.00 | 0.00 | 78 | 1020.7 |
| 20260508053508 | 7 | 250 | 1.6 | 1.6 | 0.00 | 0.00 | 0.00 | 77 | 1020.7 |
| 20260508053007 | 7 | 269 | 1.6 | 1.6 | 0.00 | 0.00 | 0.00 | 74 | 1020.9 |
| 20260508052504 | 8 | 292 | 4.8 | 4.8 | 0.00 | 0.00 | 0.00 | 72 | 1020.8 |
| 20260508052000 | 7 | 238 | 1.6 | 1.6 | 0.00 | 0.00 | 0.00 | 74 | 1020.7 |
| 20260508051456 | 7 | 281 | 3.2 | 3.2 | 0.00 | 0.00 | 0.00 | 75 | 1020.6 |
| 20260508050951 | 8 | 217 | 1.6 | 3.2 | 0.00 | 0.00 | 0.00 | 74 | 1020.9 |
| 20260508050448 | 8 | 261 | 6.4 | 8.0 | 0.00 | 0.00 | 0.00 | 73 | 1020.7 |
| 20260508045945 | 8 | 222 | 6.4 | 8.0 | 0.00 | 0.00 | 0.00 | 74 | 1020.9 |
| 20260508045442 | 8 | 197 | 1.6 | 3.2 | 0.00 | 0.00 | 0.00 | 71 | 1020.8 |
| 20260508044940 | 7 | 221 | 1.6 | 3.2 | 0.00 | 0.00 | 0.00 | 80 | 1020.9 |
| 20260508044437 | 7 | 223 | 3.2 | 3.2 | 0.00 | 0.00 | 0.00 | 80 | 1020.8 |
| 20260508043932 | 7 | 228 | 1.6 | 1.6 | 0.00 | 0.00 | 0.00 | 80 | 1021.1 |
| 20260508043430 | 8 | 243 | 1.6 | 3.2 | 0.00 | 0.00 | 0.00 | 78 | 1020.8 |
| 20260508042926 | 8 | 191 | 1.6 | 1.6 | 0.00 | 0.00 | 0.00 | 74 | 1020.8 |
| 20260508042424 | 10 | 238 | 3.2 | 4.8 | 0.00 | 0.00 | 0.00 | 68 | 1020.7 |
| 20260508041920 | 11 | 198 | 3.2 | 4.8 | 0.00 | 0.00 | 0.00 | 59 | 1020.7 |
| 20260508041417 | 11 | 252 | 1.6 | 3.2 | 0.00 | 0.00 | 0.00 | 51 | 1020.8 |
| 20260508040913 | 11 | 297 | 4.8 | 4.8 | 0.00 | 0.00 | 0.00 | 48 | 1020.7 |
| 20260508040411 | 11 | 329 | 1.6 | 3.2 | 0.00 | 0.00 | 0.00 | 48 | 1020.8 |
| 20260508035909 | 11 | 190 | 0.0 | 0.0 | 0.00 | 0.00 | 0.00 | 47 | 1020.6 |
| 20260508035405 | 11 | 265 | 1.6 | 3.2 | 0.00 | 0.00 | 0.00 | 47 | 1020.6 |
| 20260508034902 | 11 | 239 | 1.6 | 1.6 | 0.00 | 0.00 | 0.00 | 47 | 1020.6 |
| 20260508034359 | 11 | 215 | 1.6 | 3.2 | 0.00 | 0.00 | 0.00 | 46 | 1020.4 |
| 20260508033850 | 11 | 349 | 8.0 | 11.3 | 0.00 | 0.00 | 0.00 | 45 | 1020.4 |
| 20260508033349 | 11 | 325 | 3.2 | 3.2 | 0.00 | 0.00 | 0.00 | 46 | 1020.1 |
| 20260508032846 | 11 | 258 | 3.2 | 4.8 | 0.00 | 0.00 | 0.00 | 45 | 1020.1 |
| 20260508032343 | 11 | 208 | 1.6 | 1.6 | 0.00 | 0.00 | 0.00 | 44 | 1020.2 |
| 20260508031839 | 11 | 166 | 1.6 | 1.6 | 0.00 | 0.00 | 0.00 | 45 | 1020.1 |
| 20260508031337 | 12 | 213 | 1.6 | 3.2 | 0.00 | 0.00 | 0.00 | 44 | 1020.2 |
| 20260508030833 | 12 | 320 | 6.4 | 8.0 | 0.00 | 0.00 | 0.00 | 44 | 1019.8 |
| 20260508030330 | 11 | 10 | 1.6 | 3.2 | 0.00 | 0.00 | 0.00 | 45 | 1019.8 |
| 20260508025827 | 11 | 220 | 0.0 | 1.6 | 0.00 | 0.00 | 0.00 | 45 | 1019.8 |
| 20260508025324 | 11 | 303 | 1.6 | 1.6 | 0.00 | 0.00 | 0.00 | 45 | 1020.1 |
| 20260508024821 | 12 | 240 | 0.0 | 0.0 | 0.00 | 0.00 | 0.00 | 45 | 1019.7 |
| 20260508024317 | 12 | 246 | 1.6 | 1.6 | 0.00 | 0.00 | 0.00 | 43 | 1019.7 |
| 20260508023814 | 12 | 283 | 3.2 | 3.2 | 0.00 | 0.00 | 0.00 | 43 | 1019.6 |
| 20260508023311 | 12 | 271 | 1.6 | 1.6 | 0.00 | 0.00 | 0.00 | 42 | 1019.6 |
| 20260508022807 | 12 | 275 | 3.2 | 4.8 | 0.00 | 0.00 | 0.00 | 42 | 1019.3 |
| 20260508022306 | 12 | 327 | 8.0 | 12.9 | 0.00 | 0.00 | 0.00 | 42 | 1019.7 |
| 20260508021801 | 12 | 259 | 6.4 | 11.3 | 0.00 | 0.00 | 0.00 | 41 | 1019.3 |
| 20260508021256 | 12 | 319 | 8.0 | 11.3 | 0.00 | 0.00 | 0.00 | 41 | 1019.3 |
| 20260508020752 | 12 | 267 | 3.2 | 3.2 | 0.00 | 0.00 | 0.00 | 40 | 1019.3 |
| 20260508020251 | 13 | 324 | 6.4 | 11.3 | 0.00 | 0.00 | 0.00 | 40 | 1019.2 |
| 20260508015747 | 13 | 298 | 3.2 | 3.2 | 0.00 | 0.00 | 0.00 | 40 | 1019.1 |
| 20260508015244 | 13 | 302 | 3.2 | 3.2 | 0.00 | 0.00 | 0.00 | 40 | 1019.0 |
| 20260508014741 | 13 | 303 | 6.4 | 9.7 | 0.00 | 0.00 | 0.00 | 39 | 1019.1 |
| 20260508014238 | 13 | 324 | 4.8 | 9.7 | 0.00 | 0.00 | 0.00 | 39 | 1019.5 |
| 20260508013734 | 13 | 31 | 11.3 | 12.9 | 0.00 | 0.00 | 0.00 | 39 | 1019.1 |
| 20260508013231 | 13 | 325 | 8.0 | 11.3 | 0.00 | 0.00 | 0.00 | 39 | 1018.8 |
| 20260508012728 | 13 | 324 | 14.5 | 17.7 | 0.00 | 0.00 | 0.00 | 39 | 1018.8 |
| 20260508012225 | 13 | 305 | 4.8 | 8.0 | 0.00 | 0.00 | 0.00 | 39 | 1019.2 |
| 20260508011723 | 13 | 314 | 16.1 | 22.5 | 0.00 | 0.00 | 0.00 | 38 | 1019.1 |
| 20260508011220 | 13 | 14 | 12.9 | 14.5 | 0.00 | 0.00 | 0.00 | 38 | 1019.0 |
| 20260508010717 | 13 | 308 | 17.7 | 20.9 | 0.00 | 0.00 | 0.00 | 38 | 1018.8 |
| 20260508010215 | 13 | 286 | 14.5 | 20.9 | 0.00 | 0.00 | 0.00 | 37 | 1018.8 |
| 20260508005712 | 13 | 286 | 11.3 | 14.5 | 0.00 | 0.00 | 0.00 | 37 | 1018.8 |
| 20260508005208 | 13 | 338 | 12.9 | 17.7 | 0.00 | 0.00 | 0.00 | 37 | 1018.7 |
| 20260508004704 | 14 | 348 | 11.3 | 12.9 | 0.00 | 0.00 | 0.00 | 37 | 1019.0 |
| 20260508004200 | 14 | 282 | 8.0 | 11.3 | 0.00 | 0.00 | 0.00 | 37 | 1019.1 |
| 20260508003657 | 14 | 297 | 11.3 | 14.5 | 0.00 | 0.00 | 0.00 | 37 | 1018.8 |
| 20260508003155 | 14 | 314 | 3.2 | 3.2 | 0.00 | 0.00 | 0.00 | 38 | 1018.7 |
| 20260508002651 | 13 | 346 | 12.9 | 14.5 | 0.00 | 0.00 | 0.00 | 37 | 1018.6 |
| 20260508002149 | 13 | 330 | 16.1 | 17.7 | 0.00 | 0.00 | 0.00 | 36 | 1019.1 |
| 20260508001644 | 13 | 255 | 8.0 | 11.3 | 0.00 | 0.00 | 0.00 | 37 | 1018.8 |
| 20260508001140 | 13 | 359 | 4.8 | 9.7 | 0.00 | 0.00 | 0.00 | 37 | 1018.8 |
| 20260508000636 | 14 | 317 | 12.9 | 16.1 | 0.00 | 0.00 | 0.00 | 36 | 1019.0 |
| 20260508000134 | 14 | 349 | 8.0 | 11.3 | 0.00 | 0.00 | 0.00 | 36 | 1018.8 |
| 20260507235630 | 15 | 287 | 11.3 | 16.1 | 0.00 | 0.00 | 0.00 | 36 | 1018.6 |
| 20260507235128 | 15 | 24 | 6.4 | 9.7 | 0.00 | 0.00 | 0.00 | 35 | 1018.7 |
| 20260507234624 | 15 | 340 | 6.4 | 8.0 | 0.00 | 0.00 | 0.00 | 36 | 1018.5 |
| 20260507234121 | 15 | 343 | 8.0 | 9.7 | 0.00 | 0.00 | 0.00 | 36 | 1018.6 |
| 20260507233618 | 15 | 301 | 8.0 | 9.7 | 0.00 | 0.00 | 0.00 | 36 | 1018.7 |
| 20260507233116 | 15 | 337 | 11.3 | 16.1 | 0.00 | 0.00 | 0.00 | 34 | 1018.7 |
| 20260507232613 | 15 | 350 | 16.1 | 17.7 | 0.00 | 0.00 | 0.00 | 33 | 1018.6 |
| 20260507232110 | 15 | 2 | 12.9 | 14.5 | 0.00 | 0.00 | 0.00 | 34 | 1018.3 |
| 20260507231606 | 16 | 357 | 8.0 | 9.7 | 0.00 | 0.00 | 0.00 | 34 | 1018.5 |
| 20260507231103 | 16 | 25 | 12.9 | 16.1 | 0.00 | 0.00 | 0.00 | 33 | 1019.0 |
| 20260507230559 | 16 | 352 | 17.7 | 22.5 | 0.00 | 0.00 | 0.00 | 32 | 1018.6 |
| 20260507230056 | 16 | 318 | 9.7 | 12.9 | 0.00 | 0.00 | 0.00 | 34 | 1018.8 |
| 20260507225551 | 16 | 9 | 14.5 | 20.9 | 0.00 | 0.00 | 0.00 | 33 | 1018.6 |
| 20260507225048 | 16 | 331 | 11.3 | 16.1 | 0.00 | 0.00 | 0.00 | 33 | 1018.6 |
| 20260507224543 | 16 | 306 | 12.9 | 17.7 | 0.00 | 0.00 | 0.00 | 33 | 1018.7 |
| 20260507224040 | 16 | 9 | 12.9 | 17.7 | 0.00 | 0.00 | 0.00 | 33 | 1018.8 |
| 20260507223536 | 15 | 287 | 8.0 | 11.3 | 0.00 | 0.00 | 0.00 | 35 | 1018.7 |
| 20260507223034 | 15 | 305 | 16.1 | 17.7 | 0.00 | 0.00 | 0.00 | 35 | 1018.6 |
| 20260507222531 | 15 | 322 | 9.7 | 11.3 | 0.00 | 0.00 | 0.00 | 35 | 1019.0 |
| 20260507222027 | 16 | 319 | 8.0 | 9.7 | 0.00 | 0.00 | 0.00 | 34 | 1018.8 |
| 20260507221523 | 16 | 300 | 4.8 | 4.8 | 0.00 | 0.00 | 0.00 | 33 | 1019.0 |
| 20260507221020 | 16 | 276 | 8.0 | 11.3 | 0.00 | 0.00 | 0.00 | 31 | 1018.8 |
| 20260507220518 | 16 | 343 | 12.9 | 14.5 | 0.00 | 0.00 | 0.00 | 35 | 1019.1 |
| 20260507220015 | 15 | 293 | 8.0 | 11.3 | 0.00 | 0.00 | 0.00 | 35 | 1019.1 |
| 20260507215511 | 15 | 300 | 14.5 | 20.9 | 0.00 | 0.00 | 0.00 | 34 | 1019.0 |
| 20260507215009 | 16 | 265 | 8.0 | 11.3 | 0.00 | 0.00 | 0.00 | 33 | 1019.3 |
| 20260507214506 | 16 | 340 | 9.7 | 14.5 | 0.00 | 0.00 | 0.00 | 34 | 1019.0 |
| 20260507214001 | 16 | 298 | 11.3 | 12.9 | 0.00 | 0.00 | 0.00 | 33 | 1019.2 |
| 20260507213458 | 16 | 356 | 8.0 | 11.3 | 0.00 | 0.00 | 0.00 | 33 | 1019.3 |
| 20260507212955 | 16 | 303 | 12.9 | 14.5 | 0.00 | 0.00 | 0.00 | 33 | 1019.6 |
| 20260507212451 | 16 | 347 | 8.0 | 12.9 | 0.00 | 0.00 | 0.00 | 35 | 1019.3 |
| 20260507211948 | 16 | 5 | 14.5 | 17.7 | 0.00 | 0.00 | 0.00 | 33 | 1019.5 |
| 20260507211444 | 15 | 349 | 8.0 | 11.3 | 0.00 | 0.00 | 0.00 | 35 | 1019.7 |
| 20260507210941 | 15 | 330 | 14.5 | 20.9 | 0.00 | 0.00 | 0.00 | 35 | 1019.8 |
| 20260507210438 | 15 | 59 | 19.3 | 24.1 | 0.00 | 0.00 | 0.00 | 35 | 1019.8 |
| 20260507205935 | 15 | 318 | 8.0 | 12.9 | 0.00 | 0.00 | 0.00 | 35 | 1020.0 |
| 20260507205432 | 15 | 324 | 11.3 | 16.1 | 0.00 | 0.00 | 0.00 | 35 | 1020.0 |
| 20260507204928 | 16 | 330 | 8.0 | 9.7 | 0.00 | 0.00 | 0.00 | 33 | 1019.8 |
| 20260507204424 | 16 | 149 | 9.7 | 12.9 | 0.00 | 0.00 | 0.00 | 34 | 1020.0 |
| 20260507203922 | 16 | 326 | 9.7 | 16.1 | 0.00 | 0.00 | 0.00 | 34 | 1020.0 |
| 20260507203420 | 16 | 329 | 12.9 | 16.1 | 0.00 | 0.00 | 0.00 | 35 | 1020.3 |
| 20260507202916 | 16 | 45 | 4.8 | 4.8 | 0.00 | 0.00 | 0.00 | 33 | 1020.1 |
| 20260507202413 | 16 | 317 | 12.9 | 20.9 | 0.00 | 0.00 | 0.00 | 34 | 1020.0 |
| 20260507201908 | 16 | 321 | 17.7 | 22.5 | 0.00 | 0.00 | 0.00 | 35 | 1020.3 |
| 20260507201404 | 16 | 336 | 12.9 | 14.5 | 0.00 | 0.00 | 0.00 | 34 | 1020.4 |
| 20260507200901 | 16 | 5 | 4.8 | 8.0 | 0.00 | 0.00 | 0.00 | 36 | 1020.6 |
| 20260507200356 | 16 | 234 | 9.7 | 12.9 | 0.00 | 0.00 | 0.00 | 36 | 1020.6 |
| 20260507195853 | 15 | 41 | 6.4 | 8.0 | 0.00 | 0.00 | 0.00 | 36 | 1020.3 |
| 20260507195350 | 15 | 335 | 14.5 | 16.1 | 0.00 | 0.00 | 0.00 | 37 | 1020.6 |
| 20260507194848 | 15 | 50 | 3.2 | 4.8 | 0.00 | 0.00 | 0.00 | 35 | 1020.6 |
| 20260507194344 | 15 | 294 | 6.4 | 9.7 | 0.00 | 0.00 | 0.00 | 36 | 1020.6 |
| 20260507193840 | 15 | 39 | 9.7 | 14.5 | 0.00 | 0.00 | 0.00 | 36 | 1020.6 |
| 20260507193338 | 15 | 11 | 12.9 | 17.7 | 0.00 | 0.00 | 0.00 | 35 | 1020.7 |
| 20260507192833 | 14 | 8 | 14.5 | 17.7 | 0.00 | 0.00 | 0.00 | 34 | 1020.8 |
| 20260507192330 | 14 | 308 | 17.7 | 22.5 | 0.00 | 0.00 | 0.00 | 37 | 1021.2 |
| 20260507191826 | 14 | 22 | 9.7 | 14.5 | 0.00 | 0.00 | 0.00 | 36 | 1021.3 |
| 20260507191322 | 13 | 350 | 17.7 | 22.5 | 0.00 | 0.00 | 0.00 | 36 | 1021.1 |
| 20260507190820 | 13 | 306 | 6.4 | 11.3 | 0.00 | 0.00 | 0.00 | 37 | 1021.3 |
| 20260507190318 | 14 | 29 | 16.1 | 20.9 | 0.00 | 0.00 | 0.00 | 36 | 1021.4 |
| 20260507185817 | 14 | 294 | 22.5 | 32.2 | 0.00 | 0.00 | 0.00 | 36 | 1021.4 |
| 20260507185313 | 12 | 239 | 0.0 | 1.6 | 0.00 | 0.00 | 0.00 | 37 | 1021.3 |
| 20260507184810 | 12 | 151 | 1.6 | 3.2 | 0.00 | 0.00 | 0.00 | 40 | 1021.7 |
| 20260507184309 | 12 | 159 | 4.8 | 4.8 | 0.00 | 0.00 | 0.00 | 39 | 1021.9 |
| 20260507183805 | 11 | 158 | 3.2 | 4.8 | 0.00 | 0.00 | 0.00 | 40 | 1021.8 |
| 20260507183302 | 11 | 192 | 4.8 | 4.8 | 0.00 | 0.00 | 0.00 | 41 | 1022.1 |
| 20260507182759 | 10 | 137 | 1.6 | 1.6 | 0.00 | 0.00 | 0.00 | 41 | 1022.1 |
| 20260507182254 | 11 | 145 | 4.8 | 4.8 | 0.00 | 0.00 | 0.00 | 41 | 1022.4 |
| 20260507181751 | 10 | 111 | 6.4 | 8.0 | 0.00 | 0.00 | 0.00 | 41 | 1022.1 |
| 20260507181247 | 10 | 112 | 3.2 | 3.2 | 0.00 | 0.00 | 0.00 | 41 | 1022.3 |
| 20260507180744 | 10 | 99 | 4.8 | 8.0 | 0.00 | 0.00 | 0.00 | 42 | 1022.4 |
| 20260507180241 | 11 | 100 | 4.8 | 4.8 | 0.00 | 0.00 | 0.00 | 40 | 1022.7 |
| 20260507175736 | 11 | 65 | 4.8 | 4.8 | 0.00 | 0.00 | 0.00 | 41 | 1022.7 |
| 20260507175234 | 11 | 29 | 8.0 | 9.7 | 0.00 | 0.00 | 0.00 | 41 | 1022.8 |
| 20260507174731 | 12 | 306 | 4.8 | 4.8 | 0.00 | 0.00 | 0.00 | 39 | 1022.8 |
| 20260507174229 | 11 | 91 | 3.2 | 3.2 | 0.00 | 0.00 | 0.00 | 42 | 1022.8 |
| 20260507173726 | 10 | 122 | 3.2 | 3.2 | 0.00 | 0.00 | 0.00 | 42 | 1023.1 |
| 20260507173223 | 10 | 81 | 1.6 | 3.2 | 0.00 | 0.00 | 0.00 | 41 | 1022.7 |
| 20260507172720 | 10 | 245 | 1.6 | 1.6 | 0.00 | 0.00 | 0.00 | 41 | 1023.1 |
| 20260507172217 | 10 | 201 | 1.6 | 1.6 | 0.00 | 0.00 | 0.00 | 41 | 1023.2 |
| 20260507171716 | 9 | 318 | 3.2 | 3.2 | 0.00 | 0.00 | 0.00 | 43 | 1023.2 |
| 20260507171214 | 9 | 210 | 3.2 | 4.8 | 0.00 | 0.00 | 0.00 | 41 | 1023.2 |
| 20260507170711 | 9 | 77 | 0.0 | 1.6 | 0.00 | 0.00 | 0.00 | 42 | 1023.2 |
| 20260507170208 | 10 | 15 | 6.4 | 8.0 | 0.00 | 0.00 | 0.00 | 42 | 1023.3 |
| 20260507165704 | 10 | 324 | 6.4 | 8.0 | 0.00 | 0.00 | 0.00 | 42 | 1023.2 |
| 20260507165200 | 9 | 322 | 3.2 | 3.2 | 0.00 | 0.00 | 0.00 | 43 | 1023.2 |
| 20260507164656 | 9 | 296 | 4.8 | 4.8 | 0.00 | 0.00 | 0.00 | 42 | 1023.4 |
| 20260507164153 | 8 | 9 | 3.2 | 3.2 | 0.00 | 0.00 | 0.00 | 42 | 1023.2 |
| 20260507163650 | 8 | 204 | 3.2 | 3.2 | 0.00 | 0.00 | 0.00 | 40 | 1023.3 |
| 20260507163148 | 8 | 232 | 1.6 | 1.6 | 0.00 | 0.00 | 0.00 | 42 | 1023.7 |
| 20260507162644 | 8 | 181 | 0.0 | 1.6 | 0.00 | 0.00 | 0.00 | 42 | 1023.7 |
| 20260507162140 | 8 | 35 | 3.2 | 3.2 | 0.00 | 0.00 | 0.00 | 42 | 1023.8 |
| 20260507161636 | 8 | 63 | 1.6 | 3.2 | 0.00 | 0.00 | 0.00 | 41 | 1023.7 |
| 20260507161133 | 7 | 63 | 3.2 | 3.2 | 0.00 | 0.00 | 0.00 | 40 | 1023.5 |
| 20260507160630 | 8 | 167 | 4.8 | 8.0 | 0.00 | 0.00 | 0.00 | 41 | 1023.5 |
| 20260507160126 | 7 | 187 | 1.6 | 3.2 | 0.00 | 0.00 | 0.00 | 43 | 1023.9 |
| 20260507155622 | 7 | 174 | 0.0 | 0.0 | 0.00 | 0.00 | 0.00 | 45 | 1023.8 |
| 20260507155119 | 6 | 124 | 1.6 | 1.6 | 0.00 | 0.00 | 0.00 | 44 | 1024.2 |
| 20260507154615 | 6 | 236 | 3.2 | 3.2 | 0.00 | 0.00 | 0.00 | 45 | 1024.4 |
| 20260507154113 | 6 | 136 | 3.2 | 3.2 | 0.00 | 0.00 | 0.00 | 45 | 1024.4 |
| 20260507153609 | 5 | 133 | 3.2 | 4.8 | 0.00 | 0.00 | 0.00 | 48 | 1024.5 |
| 20260507153106 | 5 | 206 | 1.6 | 1.6 | 0.00 | 0.00 | 0.00 | 49 | 1024.9 |
| 20260507152602 | 5 | 109 | 3.2 | 3.2 | 0.00 | 0.00 | 0.00 | 50 | 1025.2 |
| 20260507152058 | 4 | 232 | 1.6 | 1.6 | 0.00 | 0.00 | 0.00 | 52 | 1025.2 |
| 20260507151554 | 4 | 91 | 1.6 | 3.2 | 0.00 | 0.00 | 0.00 | 51 | 1025.3 |
| 20260507151051 | 4 | 170 | 3.2 | 4.8 | 0.00 | 0.00 | 0.00 | 52 | 1025.0 |
| 20260507150549 | 3 | 165 | 1.6 | 1.6 | 0.00 | 0.00 | 0.00 | 53 | 1025.3 |
| 20260507150045 | 3 | 119 | 6.4 | 8.0 | 0.00 | 0.00 | 0.00 | 53 | 1025.4 |
| 20260507145540 | 3 | 141 | 3.2 | 3.2 | 0.00 | 0.00 | 0.00 | 52 | 1025.7 |
| 20260507145038 | 3 | 117 | 3.2 | 3.2 | 0.00 | 0.00 | 0.00 | 54 | 1025.8 |
| 20260507144534 | 3 | 88 | 3.2 | 3.2 | 0.00 | 0.00 | 0.00 | 53 | 1025.8 |
| 20260507144032 | 2 | 113 | 1.6 | 1.6 | 0.00 | 0.00 | 0.00 | 55 | 1025.8 |
| 20260507143529 | 2 | 146 | 0.0 | 1.6 | 0.00 | 0.00 | 0.00 | 57 | 1026.0 |
| 20260507143027 | 2 | 150 | 1.6 | 1.6 | 0.00 | 0.00 | 0.00 | 56 | 1025.9 |
| 20260507142522 | 2 | 84 | 1.6 | 3.2 | 0.00 | 0.00 | 0.00 | 55 | 1025.9 |
| 20260507142019 | 2 | 171 | 1.6 | 1.6 | 0.00 | 0.00 | 0.00 | 55 | 1025.7 |
| 20260507141515 | 2 | 163 | 1.6 | 1.6 | 0.00 | 0.00 | 0.00 | 55 | 1025.9 |
| 20260507141012 | 2 | 59 | 3.2 | 3.2 | 0.00 | 0.00 | 0.00 | 57 | 1025.8 |
| 20260507140509 | 3 | 178 | 0.0 | 0.0 | 0.00 | 0.00 | 0.00 | 52 | 1025.9 |
| 20260507140007 | 3 | 173 | 0.0 | 1.6 | 0.00 | 0.00 | 0.00 | 54 | 1025.9 |
| 20260507135503 | 2 | 163 | 0.0 | 0.0 | 0.00 | 0.00 | 0.00 | 59 | 1026.2 |
| 20260507135000 | 0 | 173 | 0.0 | 0.0 | 0.00 | 0.00 | 0.00 | 64 | 1026.2 |
| 20260507134456 | 0 | 69 | 1.6 | 3.2 | 0.00 | 0.00 | 0.00 | 67 | 1026.0 |
| 20260507133952 | 0 | 147 | 1.6 | 1.6 | 0.00 | 0.00 | 0.00 | 66 | 1026.0 |
| 20260507133448 | 0 | 164 | 0.0 | 0.0 | 0.00 | 0.00 | 0.00 | 67 | 1026.0 |
| 20260507132947 | 0 | 161 | 0.0 | 0.0 | 0.00 | 0.00 | 0.00 | 70 | 1025.9 |
| 20260507132443 | 0 | 131 | 1.6 | 1.6 | 0.00 | 0.00 | 0.00 | 69 | 1025.9 |
| 20260507131939 | 0 | 154 | 1.6 | 1.6 | 0.00 | 0.00 | 0.00 | 71 | 1026.2 |
| 20260507131436 | 0 | 160 | 0.0 | 0.0 | 0.00 | 0.00 | 0.00 | 75 | 1025.8 |
| 20260507130933 | -1 | 158 | 0.0 | 1.6 | 0.00 | 0.00 | 0.00 | 76 | 1025.9 |
| 20260507130431 | -2 | 184 | 1.6 | 1.6 | 0.00 | 0.00 | 0.00 | 80 | 1026.0 |
| 20260507125929 | -2 | 156 | 0.0 | 0.0 | 0.00 | 0.00 | 0.00 | 81 | 1025.9 |
| 20260507125427 | -2 | 194 | 1.6 | 1.6 | 0.00 | 0.00 | 0.00 | 82 | 1026.0 |
| 20260507124924 | -3 | 220 | 0.0 | 1.6 | 0.00 | 0.00 | 0.00 | 84 | 1025.8 |
| 20260507124420 | -3 | 193 | 0.0 | 0.0 | 0.00 | 0.00 | 0.00 | 85 | 1025.8 |
| 20260507123919 | -3 | 203 | 0.0 | 0.0 | 0.00 | 0.00 | 0.00 | 86 | 1025.5 |
| 20260507123418 | -4 | 190 | 0.0 | 0.0 | 0.00 | 0.00 | 0.00 | 87 | 1025.5 |
| 20260507122912 | -5 | 207 | 0.0 | 0.0 | 0.00 | 0.00 | 0.00 | 87 | 1025.5 |
| 20260507122407 | -5 | 219 | 1.6 | 1.6 | 0.00 | 0.00 | 0.00 | 88 | 1025.5 |
| 20260507121904 | -5 | 194 | 0.0 | 0.0 | 0.00 | 0.00 | 0.00 | 88 | 1025.8 |
| 20260507121359 | -4 | 216 | 1.6 | 1.6 | 0.00 | 0.00 | 0.00 | 88 | 1025.5 |
| 20260507120856 | -5 | 204 | 0.0 | 0.0 | 0.00 | 0.00 | 0.00 | 87 | 1025.7 |
| 20260507120352 | -5 | 229 | 1.6 | 1.6 | 0.00 | 0.00 | 0.00 | 88 | 1025.7 |
| 20260507115848 | -5 | 236 | 1.6 | 1.6 | 0.00 | 0.00 | 0.00 | 87 | 1025.8 |
| 20260507115344 | -5 | 227 | 1.6 | 1.6 | 0.00 | 0.00 | 0.00 | 87 | 1025.8 |
| 20260507114840 | -5 | 244 | 1.6 | 3.2 | 0.00 | 0.00 | 0.00 | 86 | 1025.9 |
| 20260507114337 | -5 | 210 | 0.0 | 0.0 | 0.00 | 0.00 | 0.00 | 87 | 1025.7 |
| 20260507113835 | -5 | 206 | 0.0 | 0.0 | 0.00 | 0.00 | 0.00 | 88 | 1025.7 |
| 20260507113332 | -5 | 197 | 1.6 | 1.6 | 0.00 | 0.00 | 0.00 | 88 | 1025.7 |
| 20260507112829 | -5 | 177 | 0.0 | 0.0 | 0.00 | 0.00 | 0.00 | 87 | 1025.8 |
| 20260507112326 | -5 | 199 | 0.0 | 0.0 | 0.00 | 0.00 | 0.00 | 86 | 1025.7 |
| 20260507111824 | -5 | 182 | 0.0 | 0.0 | 0.00 | 0.00 | 0.00 | 86 | 1025.7 |
| 20260507111320 | -5 | 240 | 0.0 | 0.0 | 0.00 | 0.00 | 0.00 | 86 | 1025.7 |
| 20260507110816 | -5 | 194 | 0.0 | 0.0 | 0.00 | 0.00 | 0.00 | 86 | 1025.8 |
| 20260507110313 | -5 | 211 | 0.0 | 0.0 | 0.00 | 0.00 | 0.00 | 86 | 1025.5 |
| 20260507105810 | -5 | 232 | 1.6 | 1.6 | 0.00 | 0.00 | 0.00 | 85 | 1025.7 |
| 20260507105307 | -5 | 191 | 0.0 | 0.0 | 0.00 | 0.00 | 0.00 | 86 | 1025.4 |
| 20260507104804 | -4 | 204 | 0.0 | 0.0 | 0.00 | 0.00 | 0.00 | 86 | 1025.4 |
| 20260507104300 | -4 | 196 | 0.0 | 0.0 | 0.00 | 0.00 | 0.00 | 86 | 1025.5 |
| 20260507103756 | -4 | 188 | 0.0 | 0.0 | 0.00 | 0.00 | 0.00 | 86 | 1025.4 |
| 20260507103252 | -4 | 193 | 0.0 | 0.0 | 0.00 | 0.00 | 0.00 | 86 | 1025.5 |
| 20260507102749 | -4 | 190 | 0.0 | 1.6 | 0.00 | 0.00 | 0.00 | 86 | 1025.7 |
| 20260507102245 | -4 | 258 | 3.2 | 3.2 | 0.00 | 0.00 | 0.00 | 86 | 1025.4 |
| 20260507101742 | -4 | 211 | 0.0 | 0.0 | 0.00 | 0.00 | 0.00 | 86 | 1025.4 |
| 20260507101237 | -4 | 211 | 0.0 | 1.6 | 0.00 | 0.00 | 0.00 | 85 | 1025.5 |
| 20260507100734 | -4 | 211 | 0.0 | 0.0 | 0.00 | 0.00 | 0.00 | 85 | 1025.4 |
| 20260507100233 | -4 | 203 | 0.0 | 0.0 | 0.00 | 0.00 | 0.00 | 86 | 1025.4 |
| 20260507095730 | -4 | 208 | 0.0 | 0.0 | 0.00 | 0.00 | 0.00 | 86 | 1025.5 |
| 20260507095226 | -4 | 202 | 0.0 | 0.0 | 0.00 | 0.00 | 0.00 | 84 | 1025.4 |
| 20260507094723 | -4 | 205 | 0.0 | 0.0 | 0.00 | 0.00 | 0.00 | 84 | 1025.4 |
| 20260507094220 | -4 | 230 | 1.6 | 3.2 | 0.00 | 0.00 | 0.00 | 85 | 1025.7 |
| 20260507093717 | -3 | 189 | 0.0 | 0.0 | 0.00 | 0.00 | 0.00 | 84 | 1025.5 |
| 20260507093216 | -3 | 203 | 0.0 | 1.6 | 0.00 | 0.00 | 0.00 | 84 | 1025.4 |
| 20260507092713 | -3 | 203 | 0.0 | 0.0 | 0.00 | 0.00 | 0.00 | 83 | 1025.7 |
| 20260507092209 | -3 | 216 | 1.6 | 1.6 | 0.00 | 0.00 | 0.00 | 82 | 1025.8 |
| 20260507091705 | -3 | 204 | 0.0 | 0.0 | 0.00 | 0.00 | 0.00 | 82 | 1025.3 |
| 20260507091202 | -3 | 185 | 0.0 | 0.0 | 0.00 | 0.00 | 0.00 | 82 | 1025.4 |
| 20260507090657 | -3 | 192 | 0.0 | 0.0 | 0.00 | 0.00 | 0.00 | 81 | 1025.5 |
| 20260507090155 | -3 | 203 | 1.6 | 1.6 | 0.00 | 0.00 | 0.00 | 82 | 1025.4 |
| 20260507085652 | -3 | 203 | 0.0 | 0.0 | 0.00 | 0.00 | 0.00 | 82 | 1025.4 |
| 20260507085148 | -3 | 217 | 0.0 | 0.0 | 0.00 | 0.00 | 0.00 | 83 | 1025.7 |
| 20260507084646 | -3 | 216 | 0.0 | 0.0 | 0.00 | 0.00 | 0.00 | 82 | 1025.4 |
| 20260507084142 | -3 | 203 | 0.0 | 0.0 | 0.00 | 0.00 | 0.00 | 84 | 1025.4 |
| 20260507083639 | -3 | 184 | 0.0 | 0.0 | 0.00 | 0.00 | 0.00 | 85 | 1025.7 |
| 20260507083136 | -3 | 190 | 0.0 | 0.0 | 0.00 | 0.00 | 0.00 | 85 | 1025.7 |
| 20260507082631 | -3 | 181 | 0.0 | 0.0 | 0.00 | 0.00 | 0.00 | 85 | 1025.5 |
| 20260507082128 | -3 | 149 | 1.6 | 1.6 | 0.00 | 0.00 | 0.00 | 83 | 1025.3 |
| 20260507081625 | -2 | 238 | 1.6 | 3.2 | 0.00 | 0.00 | 0.00 | 81 | 1025.4 |
| 20260507081121 | -2 | 210 | 1.6 | 1.6 | 0.00 | 0.00 | 0.00 | 81 | 1025.5 |
| 20260507080618 | -2 | 189 | 0.0 | 0.0 | 0.00 | 0.00 | 0.00 | 82 | 1025.5 |
| 20260507080115 | -2 | 191 | 0.0 | 0.0 | 0.00 | 0.00 | 0.00 | 81 | 1025.8 |
| 20260507075614 | -2 | 188 | 0.0 | 0.0 | 0.00 | 0.00 | 0.00 | 80 | 1025.7 |
| 20260507075111 | -2 | 183 | 0.0 | 1.6 | 0.00 | 0.00 | 0.00 | 80 | 1025.5 |
| 20260507074608 | -2 | 186 | 0.0 | 1.6 | 0.00 | 0.00 | 0.00 | 79 | 1025.7 |
| 20260507074106 | -2 | 232 | 1.6 | 1.6 | 0.00 | 0.00 | 0.00 | 78 | 1025.7 |
| 20260507073602 | -2 | 219 | 0.0 | 0.0 | 0.00 | 0.00 | 0.00 | 80 | 1025.8 |
| 20260507073058 | -2 | 209 | 0.0 | 0.0 | 0.00 | 0.00 | 0.00 | 81 | 1025.8 |
| 20260507072556 | -2 | 218 | 1.6 | 1.6 | 0.00 | 0.00 | 0.00 | 80 | 1025.8 |
| 20260507072053 | -2 | 203 | 0.0 | 0.0 | 0.00 | 0.00 | 0.00 | 80 | 1025.9 |
| 20260507071551 | -2 | 195 | 0.0 | 0.0 | 0.00 | 0.00 | 0.00 | 81 | 1025.8 |
| 20260507071047 | -2 | 178 | 0.0 | 0.0 | 0.00 | 0.00 | 0.00 | 79 | 1025.5 |
| 20260507070544 | -2 | 255 | 0.0 | 0.0 | 0.00 | 0.00 | 0.00 | 78 | 1025.9 |
| 20260507070041 | -2 | 222 | 0.0 | 0.0 | 0.00 | 0.00 | 0.00 | 78 | 1025.9 |